Time;durP1;ratioP1;P1;durP2;ratioP2;P2;SDS_P1;SDS_P2;PMS_P1;PMS_P2;Temp;Humidity;BMP_temperature;BMP_pressure;BME280_temperature;BME280_humidity;BME280_pressure;Samples;Min_cycle;Max_cycle;Signal;HPM_P1;HPM_P2
2022/08/10 00:05:34;;;;;;;0.90;0.90;;;12.00;1.40;;;13.64;100.00;96115.25;645744;216;42687;-70
2022/08/10 00:08:16;;;;;;;1.55;1.45;;;12.00;1.40;;;13.68;100.00;96112.83;647036;212;40204;-70
2022/08/10 00:10:58;;;;;;;1.80;1.70;;;12.00;1.40;;;13.64;100.00;96113.83;646429;216;42318;-70
2022/08/10 00:13:40;;;;;;;1.40;1.30;;;12.00;1.40;;;13.60;100.00;96112.25;648445;216;31551;-71
2022/08/10 00:16:21;;;;;;;1.00;0.90;;;12.00;1.40;;;13.61;100.00;96115.05;635426;216;42061;-70
2022/08/10 00:19:03;;;;;;;1.08;1.05;;;12.10;1.40;;;13.60;100.00;96116.59;647115;216;33126;-70
2022/08/10 00:21:48;;;;;;;1.30;1.20;;;12.00;1.40;;;13.56;100.00;96116.56;645856;216;31849;-70
2022/08/10 00:24:30;;;;;;;1.20;1.00;;;12.10;1.40;;;13.49;100.00;96118.28;647316;212;42694;-70
2022/08/10 00:27:11;;;;;;;1.40;1.25;;;12.00;1.40;;;13.47;100.00;96115.02;646458;216;38986;-70
2022/08/10 00:31:06;;;;;;;1.40;1.20;;;11.90;1.40;;;13.40;100.00;96110.80;645412;216;31577;-70
2022/08/10 00:35:51;;;;;;;1.12;1.12;;;11.80;1.40;;;13.30;100.00;96115.24;647146;216;42145;-70
2022/08/10 00:38:35;;;;;;;0.90;0.90;;;11.80;1.40;;;13.25;100.00;96119.00;645748;212;35472;-70
2022/08/10 00:41:15;;;;;;;1.27;1.17;;;11.70;1.40;;;13.20;100.00;96114.95;646339;216;31717;-70
2022/08/10 00:43:56;;;;;;;2.37;1.83;;;11.70;1.40;;;13.15;100.00;96112.85;647197;216;31579;-69
2022/08/10 00:48:00;;;;;;;1.80;1.50;;;11.60;1.40;;;13.07;100.00;96123.48;647269;212;42747;-72
2022/08/10 00:50:42;;;;;;;1.40;1.30;;;11.50;1.40;;;13.00;100.00;96120.59;645947;212;31617;-70
2022/08/10 00:53:23;;;;;;;0.85;0.82;;;11.40;1.40;;;13.03;100.00;96115.48;646633;216;31697;-70
2022/08/10 00:56:05;;;;;;;1.43;1.30;;;11.50;1.40;;;13.10;100.00;96113.99;646761;216;31556;-69
2022/08/10 00:58:47;;;;;;;1.27;1.17;;;11.50;1.40;;;12.97;100.00;96116.69;646873;216;32130;-69
2022/08/10 01:01:29;;;;;;;0.90;0.90;;;11.40;1.40;;;12.84;100.00;96113.47;645798;216;31480;-70
2022/08/10 01:09:37;;;;;;;3.10;1.00;;;11.20;1.40;;;12.83;100.00;96109.45;645166;216;31683;-70
2022/08/10 01:14:57;;;;;;;2.20;1.03;;;11.20;1.40;;;12.74;100.00;96108.13;646821;216;42208;-70
2022/08/10 01:17:46;;;;;;;1.30;1.20;;;11.30;1.40;;;12.73;100.00;96103.78;646007;216;31549;-72
2022/08/10 01:20:28;;;;;;;1.20;1.03;;;11.30;1.40;;;12.73;100.00;96106.25;646793;212;31652;-69
2022/08/10 01:23:48;;;;;;;1.25;1.15;;;11.40;1.40;;;12.71;100.00;96112.81;646118;212;42808;-71
2022/08/10 01:26:34;;;;;;;1.50;1.20;;;11.30;1.40;;;12.62;100.00;96109.86;647841;216;42139;-71
2022/08/10 01:29:46;;;;;;;1.00;0.90;;;11.20;1.40;;;12.53;100.00;96104.42;646156;212;42272;-70
2022/08/10 01:32:47;;;;;;;1.97;1.77;;;11.00;1.40;;;12.50;100.00;96105.73;645909;216;42201;-70
2022/08/10 01:35:53;;;;;;;1.33;1.23;;;10.90;1.40;;;12.35;100.00;96106.41;646367;216;31609;-72
2022/08/10 01:38:38;;;;;;;1.40;1.30;;;10.90;1.40;;;12.38;100.00;96110.17;646546;212;42157;-71
2022/08/10 01:41:21;;;;;;;1.80;1.50;;;11.00;1.40;;;12.28;100.00;96108.06;645125;216;42531;-69
2022/08/10 01:44:03;;;;;;;1.83;1.43;;;11.00;1.40;;;12.32;100.00;96104.57;645862;216;42156;-70
2022/08/10 01:46:48;;;;;;;1.73;1.30;;;10.90;1.40;;;12.36;100.00;96104.92;646119;212;31480;-70
2022/08/10 01:49:34;;;;;;;2.60;1.20;;;10.90;1.40;;;12.43;100.00;96104.09;644836;212;41949;-70
2022/08/10 01:52:15;;;;;;;1.25;1.15;;;11.00;1.40;;;12.35;100.00;96104.30;645947;216;32594;-70
2022/08/10 01:54:56;;;;;;;1.30;1.20;;;11.00;1.40;;;12.37;100.00;96103.77;645989;216;31559;-69
2022/08/10 01:57:38;;;;;;;1.60;1.50;;;11.00;1.40;;;12.46;100.00;96103.34;631514;221;43190;-69
2022/08/10 02:02:54;;;;;;;1.20;1.10;;;11.00;1.40;;;12.31;100.00;96101.05;646189;216;43097;-72
2022/08/10 02:05:37;;;;;;;1.20;1.10;;;10.90;1.40;;;12.21;100.00;96098.26;646371;216;42164;-72
2022/08/10 02:08:19;;;;;;;1.50;1.40;;;10.80;1.40;;;12.17;100.00;96097.31;646361;216;42137;-71
2022/08/10 02:11:00;;;;;;;1.63;1.53;;;10.70;1.40;;;12.10;100.00;96097.97;645624;216;31533;-72
2022/08/10 02:13:42;;;;;;;0.90;0.80;;;10.70;1.40;;;12.09;100.00;96097.94;646752;216;42215;-70
2022/08/10 02:16:27;;;;;;;1.40;1.30;;;10.60;1.40;;;11.97;100.00;96097.28;635780;216;42916;-69
2022/08/10 02:19:08;;;;;;;1.50;1.40;;;10.50;1.40;;;11.90;100.00;96094.77;646205;212;42150;-69
2022/08/10 02:21:53;;;;;;;1.30;1.20;;;10.50;1.40;;;11.92;100.00;96091.89;645437;216;31514;-69
2022/08/10 02:24:35;;;;;;;1.50;1.40;;;10.50;1.40;;;11.88;100.00;96092.47;646961;216;31538;-69
2022/08/10 02:27:19;;;;;;;1.60;1.50;;;10.40;1.40;;;11.88;100.00;96091.22;645633;216;31543;-70
2022/08/10 02:30:01;;;;;;;1.60;0.93;;;10.40;1.40;;;11.76;100.00;96088.40;647034;216;42752;-72
2022/08/10 02:35:51;;;;;;;1.30;1.20;;;10.30;1.40;;;11.75;100.00;96086.89;646593;216;31485;-69
2022/08/10 02:38:33;;;;;;;1.70;1.60;;;10.30;1.40;;;11.70;100.00;96085.63;645985;216;39854;-70
2022/08/10 02:41:15;;;;;;;1.35;1.25;;;10.30;1.40;;;11.70;100.00;96080.80;645091;216;31551;-69
2022/08/10 02:44:00;;;;;;;4.20;1.20;;;10.30;1.40;;;11.68;100.00;96082.30;646848;216;31578;-70
2022/08/10 02:46:42;;;;;;;1.37;1.20;;;10.20;1.40;;;11.73;100.00;96083.39;646487;212;31551;-72
2022/08/10 02:49:24;;;;;;;0.80;0.77;;;10.30;1.40;;;11.71;100.00;96076.06;647250;212;31553;-70
2022/08/10 02:52:05;;;;;;;1.00;1.00;;;10.30;1.40;;;11.71;100.00;96073.97;645074;212;34430;-72
2022/08/10 02:54:48;;;;;;;2.33;0.90;;;10.40;1.40;;;11.83;100.00;96064.73;646260;216;31509;-69
2022/08/10 02:57:30;;;;;;;1.03;0.93;;;10.40;1.40;;;11.79;100.00;96074.57;646719;216;32173;-70
2022/08/10 03:00:12;;;;;;;1.80;1.30;;;10.40;1.40;;;11.82;100.00;96074.03;646524;212;31535;-70
2022/08/10 03:02:54;;;;;;;0.90;0.90;;;10.40;1.40;;;11.79;100.00;96071.91;646250;216;31549;-70
2022/08/10 03:05:36;;;;;;;2.03;1.10;;;10.40;1.40;;;11.76;100.00;96067.47;647145;216;31530;-69
2022/08/10 03:08:18;;;;;;;1.30;1.20;;;10.50;1.40;;;11.67;100.00;96067.75;645694;216;31563;-69
2022/08/10 03:11:00;;;;;;;2.30;1.40;;;10.30;1.40;;;11.62;100.00;96060.83;645906;216;31499;-69
2022/08/10 03:13:42;;;;;;;1.30;1.20;;;10.20;1.40;;;11.52;100.00;96063.41;646220;212;31555;-69
2022/08/10 03:16:23;;;;;;;1.80;1.70;;;10.10;1.40;;;11.47;100.00;96053.92;637243;216;32678;-72
2022/08/10 03:19:05;;;;;;;0.90;0.90;;;10.00;1.40;;;11.39;100.00;96051.23;645192;212;31540;-72
2022/08/10 03:21:47;;;;;;;1.60;1.50;;;9.90;1.40;;;11.32;100.00;96058.63;647501;216;31551;-72
2022/08/10 03:24:31;;;;;;;0.90;0.80;;;10.00;1.40;;;11.25;100.00;96061.98;647103;216;31605;-70
2022/08/10 03:27:13;;;;;;;1.10;1.00;;;9.90;1.40;;;11.23;100.00;96061.86;646927;216;31486;-70
2022/08/10 03:29:55;;;;;;;1.60;1.20;;;9.90;1.40;;;11.22;100.00;96059.48;647079;216;31636;-70
2022/08/10 03:32:36;;;;;;;1.90;1.20;;;9.90;1.40;;;11.11;100.00;96054.46;646241;216;31509;-69
2022/08/10 03:35:51;;;;;;;0.98;0.88;;;9.80;1.40;;;11.09;100.00;96056.55;644905;212;32176;-70
2022/08/10 03:38:32;;;;;;;0.80;0.80;;;9.70;1.40;;;11.07;100.00;96057.22;645459;216;31553;-70
2022/08/10 03:41:20;;;;;;;1.50;1.40;;;9.70;1.40;;;11.18;100.00;96056.17;645495;212;31480;-71
2022/08/10 03:44:02;;;;;;;1.20;1.10;;;9.70;1.40;;;11.14;100.00;96058.42;646259;216;31703;-70
2022/08/10 03:46:44;;;;;;;2.40;1.63;;;9.80;1.40;;;11.01;100.00;96054.16;646053;212;31697;-70
2022/08/10 03:49:25;;;;;;;1.77;1.55;;;9.70;1.40;;;10.96;100.00;96053.17;647236;216;31827;-70
2022/08/10 03:52:07;;;;;;;1.70;1.60;;;9.60;1.40;;;10.92;100.00;96054.25;646761;216;31542;-71
2022/08/10 03:54:51;;;;;;;1.50;1.40;;;9.60;1.40;;;10.92;100.00;96043.35;645920;216;32243;-70
2022/08/10 03:57:30;;;;;;;1.00;1.00;;;9.60;1.40;;;11.00;100.00;96045.59;645909;216;31900;-70
2022/08/10 04:00:17;;;;;;;0.98;0.98;;;9.60;1.40;;;11.06;100.00;96048.29;647181;212;32088;-70
2022/08/10 04:02:55;;;;;;;1.65;1.00;;;9.70;1.40;;;11.15;100.00;96049.46;646637;216;32076;-70
2022/08/10 04:05:36;;;;;;;2.70;1.70;;;9.80;1.40;;;11.18;100.00;96055.84;647303;216;31479;-71
2022/08/10 04:08:18;;;;;;;1.30;1.20;;;9.80;1.40;;;11.16;100.00;96057.19;647544;216;32118;-71
2022/08/10 04:11:03;;;;;;;1.20;1.10;;;9.80;1.40;;;11.12;100.00;96059.22;646583;216;31501;-70
2022/08/10 04:13:44;;;;;;;1.63;1.53;;;9.80;1.40;;;11.10;100.00;96060.71;646023;216;31507;-70
2022/08/10 04:16:26;;;;;;;1.60;1.17;;;9.80;1.40;;;11.08;100.00;96061.66;646642;216;31560;-70
2022/08/10 04:19:08;;;;;;;1.20;1.10;;;9.80;1.40;;;11.06;100.00;96063.64;647206;216;31593;-71
2022/08/10 04:22:00;;;;;;;0.70;0.70;;;9.80;1.40;;;11.09;100.00;96068.37;646257;216;31549;-70
2022/08/10 04:24:41;;;;;;;1.03;1.00;;;9.80;1.40;;;11.15;100.00;96073.28;646083;216;31565;-71
2022/08/10 04:27:26;;;;;;;2.20;1.73;;;9.90;1.40;;;11.19;100.00;96073.27;646923;216;31604;-69
2022/08/10 04:30:09;;;;;;;0.73;0.73;;;9.90;1.40;;;11.23;100.00;96068.70;646593;216;31544;-70
2022/08/10 04:32:54;;;;;;;0.93;0.93;;;9.90;1.40;;;11.28;100.00;96070.41;647353;216;31493;-70
2022/08/10 04:35:50;;;;;;;3.87;1.00;;;9.90;1.40;;;11.33;100.00;96072.56;646907;212;31530;-69
2022/08/10 04:38:35;;;;;;;1.10;0.85;;;9.90;1.40;;;11.40;100.00;96075.92;646823;212;31528;-70
2022/08/10 04:41:17;;;;;;;1.50;1.40;;;10.00;1.40;;;11.47;100.00;96076.52;646047;212;31513;-72
2022/08/10 04:44:01;;;;;;;1.73;1.60;;;10.00;1.40;;;11.54;100.00;96079.37;645777;216;31665;-69
2022/08/10 04:46:43;;;;;;;1.30;1.10;;;10.10;1.40;;;11.57;100.00;96070.84;646466;216;31519;-71
2022/08/10 04:49:25;;;;;;;1.10;1.00;;;10.20;1.40;;;11.68;100.00;96068.77;646914;216;31642;-71
2022/08/10 04:52:07;;;;;;;2.00;1.40;;;10.30;1.40;;;11.81;100.00;96068.13;646903;213;34513;-72
2022/08/10 04:54:48;;;;;;;2.30;1.57;;;10.40;1.40;;;11.89;100.00;96066.63;645765;216;31566;-71
2022/08/10 04:57:30;;;;;;;2.23;1.47;;;10.50;1.40;;;11.99;100.00;96062.25;646966;216;31545;-71
2022/08/10 05:00:13;;;;;;;1.20;0.90;;;10.60;1.40;;;12.13;100.00;96069.64;646981;216;31523;-70
2022/08/10 05:02:55;;;;;;;3.17;1.23;;;10.80;1.40;;;12.29;100.00;96074.94;645181;216;31519;-70
2022/08/10 05:05:40;;;;;;;4.30;1.30;;;10.80;1.40;;;12.39;100.00;96071.33;647014;216;31680;-71
2022/08/10 05:08:21;;;;;;;1.45;1.30;;;10.90;1.40;;;12.47;100.00;96077.23;646754;216;31814;-71
2022/08/10 05:11:03;;;;;;;2.13;1.37;;;11.00;1.40;;;12.66;100.00;96079.23;645532;216;33241;-70
2022/08/10 05:16:19;;;;;;;1.70;1.60;;;11.40;1.40;;;12.84;100.00;96077.05;647391;216;31890;-70
2022/08/10 05:19:01;;;;;;;1.42;1.33;;;11.50;1.40;;;12.94;100.00;96080.91;646459;216;31939;-70
2022/08/10 05:21:44;;;;;;;2.70;1.60;;;11.60;1.40;;;13.07;100.00;96082.42;646116;216;42154;-70
2022/08/10 05:24:25;;;;;;;1.30;1.20;;;11.70;1.40;;;13.20;100.00;96083.15;645580;212;42263;-70
2022/08/10 05:27:07;;;;;;;2.50;2.00;;;11.80;1.40;;;13.32;100.00;96081.17;645718;212;42780;-70
2022/08/10 05:29:48;;;;;;;2.45;2.08;;;11.90;1.40;;;13.44;100.00;96077.76;646533;212;42261;-71
2022/08/10 05:32:33;;;;;;;1.73;1.50;;;12.00;1.40;;;13.54;100.00;96078.36;647036;216;42182;-71
2022/08/10 05:35:54;;;;;;;10.77;2.00;;;12.10;1.40;;;13.63;100.00;96079.80;646119;212;31539;-69
2022/08/10 05:38:35;;;;;;;1.87;1.77;;;12.10;1.40;;;13.77;100.00;96078.35;646252;216;31555;-70
2022/08/10 05:43:55;;;;;;;1.70;1.60;;;12.50;1.40;;;14.09;100.00;96079.76;645489;212;31653;-70
2022/08/10 05:46:40;;;;;;;1.90;1.80;;;12.70;1.40;;;14.34;100.00;96078.30;646766;212;31557;-70
2022/08/10 05:49:21;;;;;;;6.20;2.00;;;12.90;1.40;;;14.52;100.00;96073.73;646135;216;31590;-71
2022/08/10 05:52:06;;;;;;;2.87;2.17;;;13.20;1.40;;;14.75;100.00;96076.73;646348;216;31608;-70
2022/08/10 05:54:47;;;;;;;2.30;1.80;;;13.30;1.40;;;14.96;100.00;96079.06;646624;216;31510;-72
2022/08/10 05:57:29;;;;;;;2.03;1.83;;;13.50;1.40;;;15.07;100.00;96078.72;646453;216;32882;-70
2022/08/10 06:00:14;;;;;;;2.25;1.83;;;13.60;1.40;;;15.23;100.00;96078.13;646396;216;31554;-69
2022/08/10 06:02:55;;;;;;;2.42;1.90;;;13.80;1.40;;;15.39;100.00;96076.69;646323;216;33663;-69
2022/08/10 06:05:38;;;;;;;3.15;2.08;;;14.00;1.40;;;15.50;100.00;96077.47;647148;216;31577;-69
2022/08/10 06:08:20;;;;;;;2.47;1.70;;;14.20;1.40;;;15.88;100.00;96085.03;645260;216;31572;-69
2022/08/10 06:11:02;;;;;;;1.85;1.15;;;14.80;1.40;;;16.23;100.00;96079.73;646440;216;36646;-69
2022/08/10 06:16:31;;;;;;;5.95;2.15;;;15.50;1.40;;;17.05;100.00;96073.34;636183;216;42343;-69
2022/08/10 06:19:12;;;;;;;3.35;1.40;;;16.10;1.40;;;17.29;100.00;96078.96;646156;216;31956;-68
2022/08/10 06:21:56;;;;;;;3.08;1.70;;;16.40;1.40;;;17.51;100.00;96068.18;646085;212;32386;-69
2022/08/10 06:24:39;;;;;;;4.10;1.65;;;16.60;1.40;;;17.55;100.00;96069.39;645502;216;31503;-69
2022/08/10 06:27:17;;;;;;;1.45;1.35;;;16.50;1.40;;;17.82;100.00;96068.39;646021;212;31550;-68
2022/08/10 06:29:59;;;;;;;3.60;1.50;;;16.80;1.40;;;17.97;100.00;96069.81;645609;216;31489;-69
2022/08/10 06:32:41;;;;;;;5.20;1.30;;;17.00;1.40;;;18.15;100.00;96072.22;646642;216;31523;-69
2022/08/10 06:35:51;;;;;;;3.62;1.48;;;17.20;1.40;;;18.29;100.00;96065.33;646306;212;31541;-69
2022/08/10 06:38:34;;;;;;;1.70;1.60;;;17.20;1.40;;;18.50;100.00;96066.13;646201;216;31549;-69
2022/08/10 06:41:16;;;;;;;1.73;1.62;;;17.60;1.40;;;18.61;100.00;96063.15;646768;216;31536;-69
2022/08/10 06:44:00;;;;;;;3.70;1.70;;;17.60;1.40;;;18.72;100.00;96063.86;646328;212;34973;-68
2022/08/10 06:46:42;;;;;;;1.85;1.25;;;17.60;1.40;;;18.86;100.00;96066.58;646153;216;31547;-69
2022/08/10 06:49:24;;;;;;;3.90;1.30;;;17.90;1.40;;;19.01;100.00;96054.22;645558;212;31647;-71
2022/08/10 06:52:06;;;;;;;2.00;1.27;;;18.00;1.40;;;19.17;100.00;96059.08;646771;212;31492;-68
2022/08/10 06:54:47;;;;;;;1.50;1.40;;;18.20;1.40;;;19.26;100.00;96057.55;646012;216;32052;-71
2022/08/10 06:57:29;;;;;;;2.15;1.75;;;18.10;1.40;;;19.42;100.00;96054.52;647408;212;31808;-70
2022/08/10 07:00:13;;;;;;;1.70;1.60;;;18.20;1.40;;;19.59;100.00;96052.01;645764;216;31554;-69
2022/08/10 07:02:56;;;;;;;1.23;1.12;;;18.40;1.40;;;19.72;100.00;96053.64;646279;216;31524;-68
2022/08/10 07:05:41;;;;;;;1.87;1.67;;;18.50;1.40;;;19.84;100.00;96051.19;645409;216;31488;-69
2022/08/10 07:08:23;;;;;;;1.40;1.30;;;18.70;1.40;;;20.05;100.00;96051.16;646501;216;31524;-69
2022/08/10 07:11:05;;;;;;;1.60;1.40;;;19.10;1.40;;;20.12;98.07;96045.56;647429;216;31610;-70
2022/08/10 07:13:46;;;;;;;1.50;1.40;;;19.20;1.40;;;20.14;99.49;96050.77;645324;216;31591;-69
2022/08/10 07:16:28;;;;;;;2.60;1.48;;;19.00;1.40;;;20.30;100.00;96054.50;635507;216;31766;-70
2022/08/10 07:19:10;;;;;;;1.20;1.02;;;19.30;1.40;;;20.47;99.85;96045.69;646897;216;31528;-69
2022/08/10 07:21:51;;;;;;;4.90;1.35;;;19.30;1.40;;;20.70;98.81;96051.16;646434;216;33057;-69
2022/08/10 07:24:33;;;;;;;1.60;1.50;;;19.70;1.40;;;20.84;94.56;96046.86;645063;216;32070;-68
2022/08/10 07:27:15;;;;;;;3.60;1.85;;;19.90;1.40;;;20.92;92.89;96040.38;647879;216;31669;-71
2022/08/10 07:29:57;;;;;;;2.05;1.25;;;19.90;1.40;;;20.92;93.62;96042.78;647724;212;31522;-69
2022/08/10 07:32:43;;;;;;;2.00;1.50;;;20.00;1.40;;;21.24;92.95;96035.07;645828;216;31483;-69
2022/08/10 07:35:51;;;;;;;1.60;1.50;;;20.20;1.40;;;21.34;92.47;96033.27;646633;216;31859;-69
2022/08/10 07:38:33;;;;;;;2.60;1.10;;;20.20;1.40;;;21.53;90.85;96036.39;647184;216;31578;-69
2022/08/10 07:41:15;;;;;;;2.00;1.37;;;20.40;1.40;;;21.61;88.00;96034.20;646158;216;31540;-69
2022/08/10 07:44:01;;;;;;;1.98;1.23;;;20.70;1.40;;;21.75;89.49;96031.98;646443;216;31593;-69
2022/08/10 07:46:41;;;;;;;2.72;1.17;;;20.80;1.40;;;21.92;87.28;96032.34;645769;212;31521;-68
2022/08/10 07:49:26;;;;;;;1.40;1.30;;;21.00;1.40;;;21.80;85.30;96030.80;646455;216;31510;-69
2022/08/10 07:52:09;;;;;;;1.55;1.33;;;20.90;1.40;;;22.07;86.78;96029.03;646257;216;42112;-70
2022/08/10 07:54:49;;;;;;;1.95;1.23;;;21.10;1.40;;;22.07;84.60;96030.86;646186;216;42805;-68
2022/08/10 07:57:31;;;;;;;2.20;1.20;;;21.20;1.40;;;22.17;85.47;96021.52;646376;216;31583;-69
2022/08/10 08:00:15;;;;;;;2.15;1.25;;;21.20;1.40;;;22.49;83.36;96023.34;647637;216;31516;-69
2022/08/10 08:03:00;;;;;;;1.70;1.23;;;21.50;1.40;;;22.81;85.23;96025.95;645222;216;32114;-68
2022/08/10 08:05:41;;;;;;;1.62;1.30;;;21.80;1.40;;;22.91;82.56;96025.06;647069;216;31487;-70
2022/08/10 08:08:23;;;;;;;1.50;1.40;;;21.80;1.40;;;23.00;80.53;96022.21;646148;216;31571;-69
2022/08/10 08:11:05;;;;;;;1.60;1.17;;;21.90;1.40;;;22.75;77.34;96022.41;647471;216;32039;-70
2022/08/10 08:13:47;;;;;;;1.40;1.30;;;21.80;1.40;;;22.79;79.72;96029.81;646759;212;31801;-69
2022/08/10 08:16:28;;;;;;;2.42;1.20;;;21.90;1.40;;;22.96;75.80;96028.52;635198;216;31903;-69
2022/08/10 08:19:10;;;;;;;2.70;1.08;;;22.10;1.40;;;23.25;78.76;96029.50;645516;212;31527;-68
2022/08/10 08:21:52;;;;;;;1.30;1.20;;;22.30;1.40;;;23.37;76.78;96030.85;646678;212;31533;-69
2022/08/10 08:26:14;;;;;;;1.33;0.90;;;22.60;1.40;;;23.63;76.34;96031.11;646473;216;31598;-69
2022/08/10 08:28:55;;;;;;;1.30;1.17;;;22.60;1.40;;;23.92;75.24;96032.30;618597;226;32588;-69
2022/08/10 08:31:37;;;;;;;1.50;1.40;;;22.90;1.40;;;24.03;74.85;96033.03;647779;216;31544;-69
2022/08/10 08:35:51;;;;;;;2.12;1.27;;;23.00;1.40;;;24.25;74.26;96032.43;644097;216;31637;-69
2022/08/10 08:38:33;;;;;;;1.15;1.05;;;23.20;1.40;;;23.70;71.17;96029.87;619038;222;32333;-69
2022/08/10 08:46:54;;;;;;;3.30;1.50;;;23.60;1.40;;;23.92;66.94;96033.80;647264;216;31509;-69
2022/08/10 08:49:45;;;;;;;1.10;0.90;;;22.80;1.40;;;24.00;68.63;96030.16;648215;216;31571;-69
2022/08/10 08:52:30;;;;;;;0.70;0.70;;;23.20;1.40;;;24.80;68.46;96033.01;646360;216;31526;-69
2022/08/10 08:55:31;;;;;;;0.85;0.62;;;23.90;1.40;;;24.73;64.55;96028.20;646431;216;31545;-69
2022/08/10 08:58:25;;;;;;;1.73;1.30;;;24.00;1.40;;;25.23;66.07;96026.81;645780;216;31515;-69
2022/08/10 09:01:19;;;;;;;1.42;1.33;;;24.40;1.40;;;25.72;64.71;96023.13;648690;212;31528;-70
2022/08/10 09:04:48;;;;;;;2.00;1.40;;;24.70;1.40;;;25.70;60.77;96022.16;646351;216;31537;-70
2022/08/10 09:08:05;;;;;;;0.80;0.80;;;25.00;1.40;;;25.96;60.92;96020.53;646581;216;31466;-69
2022/08/10 09:13:37;;;;;;;2.10;1.10;;;25.10;1.40;;;26.53;56.43;96013.10;618026;226;42645;-70
2022/08/10 09:19:21;;;;;;;1.30;1.20;;;26.80;1.40;;;28.36;54.38;96015.45;646391;216;31629;-70
2022/08/10 09:22:27;;;;;;;2.70;0.93;;;30.20;1.40;;;28.91;49.54;96006.44;645717;216;31541;-70
2022/08/10 09:25:25;;;;;;;1.90;1.00;;;30.30;1.40;;;29.02;51.18;96008.19;646887;212;31608;-69
2022/08/10 09:28:09;;;;;;;2.12;1.20;;;30.20;1.40;;;28.59;47.58;96013.41;646753;216;31522;-70
2022/08/10 09:30:57;;;;;;;2.58;1.10;;;29.20;1.40;;;29.02;48.25;96012.98;646365;216;31622;-69
2022/08/10 09:36:18;;;;;;;1.50;0.90;;;30.00;1.40;;;27.78;51.11;96014.57;646034;212;31530;-69
2022/08/10 09:39:16;;;;;;;1.52;0.90;;;28.70;1.40;;;30.08;50.69;96010.88;643603;218;31494;-69
2022/08/10 09:42:31;;;;;;;1.67;0.90;;;30.80;1.40;;;31.79;45.66;96003.05;645603;216;31674;-69
2022/08/10 09:48:02;;;;;;;2.45;1.10;;;31.70;1.40;;;31.57;41.06;96009.73;646755;216;31815;-69
2022/08/10 09:51:07;;;;;;;1.37;1.20;;;30.10;1.40;;;31.15;42.03;96011.41;646678;212;31530;-70
2022/08/10 09:53:59;;;;;;;1.20;1.10;;;30.30;1.40;;;29.93;44.45;96016.50;645551;216;31587;-69
2022/08/10 09:56:46;;;;;;;0.60;0.60;;;29.70;1.40;;;31.51;45.28;96005.55;646475;212;31673;-71
2022/08/10 09:59:38;;;;;;;1.40;0.80;;;30.90;1.40;;;31.17;42.08;96011.45;646585;216;31466;-70
2022/08/10 10:02:37;;;;;;;1.20;0.98;;;30.50;1.40;;;32.35;40.97;96007.26;642604;215;32076;-70
2022/08/10 10:05:24;;;;;;;1.20;1.08;;;31.90;1.40;;;33.26;39.37;96000.05;645939;212;31527;-69
2022/08/10 10:08:12;;;;;;;1.20;0.70;;;32.30;1.40;;;34.80;37.76;96005.70;645419;216;31518;-69
2022/08/10 10:10:57;;;;;;;2.67;0.85;;;32.20;1.40;;;33.06;39.99;96002.86;647122;216;31674;-71
2022/08/10 10:16:25;;;;;;;1.12;1.00;;;31.50;1.40;;;34.32;39.43;95990.48;636018;212;31984;-70
2022/08/10 10:19:31;;;;;;;1.30;0.70;;;31.50;1.40;;;32.37;38.94;96000.80;646133;216;42795;-69
2022/08/10 10:22:29;;;;;;;0.98;0.88;;;28.40;1.40;;;31.48;43.57;95992.11;645168;212;31979;-69
2022/08/10 10:25:21;;;;;;;1.60;0.80;;;31.60;1.40;;;34.44;38.83;95995.38;646798;216;31795;-70
2022/08/10 10:28:13;;;;;;;1.67;1.00;;;33.00;1.40;;;35.32;38.71;95982.22;646100;216;31720;-69
2022/08/10 10:31:15;;;;;;;1.00;0.90;;;33.30;1.40;;;35.29;36.87;95985.84;647325;216;31769;-69
2022/08/10 10:35:53;;;;;;;0.90;0.70;;;30.60;1.40;;;31.71;40.87;95985.73;646269;216;31723;-70
2022/08/10 10:38:34;;;;;;;1.00;0.98;;;30.90;1.40;;;31.24;41.52;95991.59;646146;212;42720;-69
2022/08/10 10:43:52;;;;;;;1.30;1.00;;;32.80;1.40;;;33.16;39.15;95981.22;645668;212;32185;-70
2022/08/10 10:46:49;;;;;;;2.12;1.10;;;32.20;1.40;;;36.27;39.30;95966.33;645718;216;31784;-70
2022/08/10 10:49:57;;;;;;;4.50;1.05;;;33.20;1.40;;;36.63;36.62;95973.34;645913;216;31595;-71
2022/08/10 10:55:44;;;;;;;1.73;1.00;;;34.30;1.40;;;33.33;37.10;95972.56;645190;216;31613;-70
2022/08/10 10:58:27;;;;;;;1.65;0.90;;;31.80;1.40;;;36.79;35.38;95966.27;619165;222;31902;-70
2022/08/10 11:06:49;;;;;;;1.70;1.27;;;32.30;1.40;;;36.05;36.13;95967.98;646055;216;32123;-70
2022/08/10 11:09:38;;;;;;;1.30;0.70;;;33.10;1.40;;;35.97;35.93;95970.18;645056;212;31562;-70
2022/08/10 11:12:39;;;;;;;0.88;0.75;;;33.00;1.40;;;36.69;35.37;95972.83;646612;216;31562;-70
2022/08/10 11:15:31;;;;;;;1.90;1.30;;;32.40;1.40;;;37.20;35.08;95970.00;641216;216;31780;-70
2022/08/10 11:18:48;;;;;;;1.05;0.90;;;33.50;1.40;;;36.47;33.75;95982.24;645860;212;31529;-70
2022/08/10 11:22:06;;;;;;;0.70;0.70;;;32.50;1.40;;;36.09;35.09;95985.76;647044;212;31511;-70
2022/08/10 11:25:02;;;;;;;2.50;0.90;;;32.00;1.40;;;35.09;36.03;95987.25;646198;216;31534;-70
2022/08/10 11:27:49;;;;;;;2.22;1.08;;;32.20;1.40;;;34.56;36.02;95980.14;646329;212;32056;-70
2022/08/10 11:35:51;;;;;;;1.17;0.98;;;33.10;1.40;;;33.48;36.96;95990.63;618625;226;42605;-70
2022/08/10 11:38:46;;;;;;;1.20;0.80;;;30.90;1.40;;;31.11;39.90;95996.88;646967;216;31532;-70
2022/08/10 11:41:54;;;;;;;1.30;0.90;;;30.60;1.40;;;32.82;38.67;95984.45;646963;216;31598;-70
2022/08/10 11:44:53;;;;;;;1.20;1.10;;;31.40;1.40;;;29.77;40.72;95990.53;646121;212;31555;-69
2022/08/10 11:47:37;;;;;;;1.20;1.10;;;29.10;1.40;;;31.73;40.16;95992.74;618678;226;32425;-70
2022/08/10 11:50:31;;;;;;;2.03;1.60;;;30.30;1.40;;;34.88;36.75;95973.62;646074;216;31658;-71
2022/08/10 11:53:28;;;;;;;2.10;1.00;;;32.60;1.40;;;32.97;37.58;95979.72;646896;212;31714;-70
2022/08/10 11:56:10;;;;;;;2.20;1.00;;;31.10;1.40;;;35.73;36.08;95972.18;644605;216;31624;-71
2022/08/10 12:01:54;;;;;;;1.55;1.00;;;32.80;1.40;;;36.82;33.90;95974.14;646360;212;31532;-70
2022/08/10 12:04:36;;;;;;;2.25;1.00;;;32.30;1.40;;;34.95;35.84;95987.07;646965;212;31884;-71
2022/08/10 12:07:18;;;;;;;2.00;0.85;;;30.70;1.40;;;33.80;36.32;95989.28;646241;216;31549;-70
2022/08/10 12:09:59;;;;;;;0.88;0.88;;;29.40;1.40;;;34.11;35.64;95986.46;645431;216;31784;-69
2022/08/10 12:12:53;;;;;;;1.10;1.00;;;29.10;1.40;;;32.13;38.12;95991.56;647084;216;31583;-69
2022/08/10 12:15:50;;;;;;;0.80;0.80;;;29.40;1.40;;;33.86;36.80;95979.46;641264;216;31744;-69
2022/08/10 12:18:53;;;;;;;1.00;0.77;;;31.80;1.40;;;36.69;33.71;95975.89;646951;216;31498;-70
2022/08/10 12:21:36;;;;;;;1.90;1.10;;;32.40;1.40;;;34.00;35.37;95975.91;646100;216;32073;-71
2022/08/10 12:29:53;;;;;;;3.33;1.10;;;29.70;1.40;;;35.54;34.42;95966.21;647442;216;32176;-69
2022/08/10 12:32:54;;;;;;;1.80;0.85;;;32.00;1.40;;;38.42;31.00;95959.33;646121;212;31633;-70
2022/08/10 12:36:08;;;;;;;1.30;0.70;;;32.20;1.40;;;32.61;34.36;95967.31;648077;216;31787;-70
2022/08/10 12:39:07;;;;;;;1.45;0.82;;;29.60;1.40;;;33.93;34.00;95972.05;646763;216;31556;-70
2022/08/10 12:41:59;;;;;;;1.90;1.00;;;30.40;1.40;;;34.58;33.50;95964.28;646220;212;31579;-70
2022/08/10 12:44:43;;;;;;;0.88;0.60;;;31.70;1.40;;;33.28;35.19;95956.89;647392;216;31498;-73
2022/08/10 12:48:01;;;;;;;1.00;0.70;;;30.40;1.40;;;33.64;35.21;95958.92;646859;212;31960;-72
2022/08/10 12:50:43;;;;;;;2.90;1.00;;;30.30;1.40;;;34.30;34.86;95947.27;646813;212;31624;-71
2022/08/10 12:53:35;;;;;;;0.93;0.60;;;30.30;1.40;;;33.71;35.40;95950.25;646291;216;31486;-72
2022/08/10 12:56:20;;;;;;;1.23;1.03;;;30.40;1.40;;;33.34;36.91;95945.98;618787;226;32698;-71
2022/08/10 12:59:02;;;;;;;2.17;1.02;;;30.20;1.40;;;31.71;36.34;95956.59;645061;216;31628;-70
2022/08/10 13:01:43;;;;;;;1.52;0.80;;;29.50;1.40;;;30.11;38.35;95949.23;646670;216;31606;-70
2022/08/10 13:04:28;;;;;;;1.10;0.80;;;28.50;1.40;;;29.48;39.76;95951.04;630818;222;31767;-70